Time;durP1;ratioP1;P1;durP2;ratioP2;P2;SDS_P1;SDS_P2;PMS_P1;PMS_P2;Temp;Humidity;BMP_temperature;BMP_pressure;BME280_temperature;BME280_humidity;BME280_pressure;Samples;Min_cycle;Max_cycle;Signal;HPM_P1;HPM_P2
2023/12/13 00:00:27;;;;;;;0.50;0.50;;;;;;;6.24;100.00;95476.78;29395;203;63004;-65
2023/12/13 00:00:59;;;;;;;0.50;0.50;;;;;;;6.22;100.00;95473.59;29395;328;63009;-63
2023/12/13 00:01:30;;;;;;;0.50;0.50;;;;;;;6.26;100.00;95482.66;29395;262;63004;-64
2023/12/13 00:02:01;;;;;;;0.60;0.60;;;;;;;6.28;100.00;95472.38;29394;342;64013;-55
2023/12/13 00:02:33;;;;;;;0.50;0.50;;;;;;;6.29;100.00;95473.97;29395;198;63004;-64
2023/12/13 00:03:04;;;;;;;0.60;0.60;;;;;;;6.30;100.00;95476.38;29395;267;63009;-63
2023/12/13 00:03:36;;;;;;;0.50;0.50;;;;;;;6.31;100.00;95480.66;29395;213;63005;-63
2023/12/13 00:04:07;;;;;;;0.50;0.50;;;;;;;6.31;100.00;95479.88;29395;330;63016;-64
2023/12/13 00:04:38;;;;;;;0.50;0.50;;;;;;;6.31;100.00;95477.19;29394;367;64009;-66
2023/12/13 00:05:10;;;;;;;0.60;0.60;;;;;;;6.30;100.00;95487.16;29395;253;63009;-64
2023/12/13 00:05:42;;;;;;;0.60;0.60;;;;;;;6.29;100.00;95479.38;29395;220;63005;-55
2023/12/13 00:06:14;;;;;;;0.60;0.60;;;;;;;6.31;100.00;95479.88;29395;216;63009;-64
2023/12/13 00:06:45;;;;;;;0.60;0.60;;;;;;;6.32;100.00;95478.78;29395;225;63004;-63
2023/12/13 00:07:18;;;;;;;0.50;0.50;;;;;;;6.34;100.00;95473.87;29395;220;63009;-64
2023/12/13 00:07:50;;;;;;;0.50;0.50;;;;;;;6.36;100.00;95479.78;29395;206;63004;-62
2023/12/13 00:08:22;;;;;;;0.62;0.62;;;;;;;6.39;100.00;95482.66;29395;313;63009;-63
2023/12/13 00:08:53;;;;;;;0.50;0.50;;;;;;;6.41;100.00;95485.06;29395;238;63004;-63
2023/12/13 00:09:25;;;;;;;0.50;0.50;;;;;;;6.38;100.00;95485.66;29395;235;63008;-65
2023/12/13 00:09:56;;;;;;;0.60;0.60;;;;;;;6.35;100.00;95483.56;29394;207;64008;-64
2023/12/13 00:10:27;;;;;;;0.50;0.50;;;;;;;6.32;100.00;95484.16;29394;212;64013;-66
2023/12/13 00:10:59;;;;;;;0.60;0.60;;;;;;;6.31;100.00;95486.06;29395;258;63005;-63
2023/12/13 00:11:30;;;;;;;0.60;0.60;;;;;;;6.30;100.00;95483.66;29395;242;63020;-55
2023/12/13 00:12:04;;;;;;;0.50;0.50;;;;;;;6.32;100.00;95484.16;29395;218;63005;-63
2023/12/13 00:12:35;;;;;;;0.50;0.50;;;;;;;6.31;100.00;95480.66;29395;348;63022;-63
2023/12/13 00:13:07;;;;;;;0.60;0.60;;;;;;;6.31;100.00;95479.88;29395;207;63005;-64
2023/12/13 00:13:39;;;;;;;0.50;0.50;;;;;;;6.30;100.00;95476.38;29394;224;64013;-63
2023/12/13 00:14:10;;;;;;;0.60;0.60;;;;;;;6.30;100.00;95480.97;29395;269;63004;-63
2023/12/13 00:14:41;;;;;;;0.60;0.60;;;;;;;6.33;100.00;95480.38;29395;226;63009;-64
2023/12/13 00:15:13;;;;;;;0.55;0.55;;;;;;;6.30;100.00;95470.19;29395;220;63004;-62
2023/12/13 00:15:46;;;;;;;0.50;0.50;;;;;;;6.31;100.00;95472.59;29395;239;63023;-56
2023/12/13 00:16:19;;;;;;;0.50;0.50;;;;;;;6.29;100.00;95477.47;29395;243;63005;-63
2023/12/13 00:16:51;;;;;;;0.50;0.50;;;;;;;6.28;100.00;95472.38;29395;249;63008;-61
2023/12/13 00:17:22;;;;;;;0.50;0.50;;;;;;;6.29;100.00;95471.28;29395;232;63005;-65
2023/12/13 00:17:53;;;;;;;0.50;0.50;;;;;;;6.27;100.00;95482.38;29395;273;63009;-64
2023/12/13 00:18:24;;;;;;;0.50;0.50;;;;;;;6.26;100.00;95469.19;29395;222;63005;-62
2023/12/13 00:18:56;;;;;;;0.50;0.50;;;;;;;6.27;100.00;95466.19;29394;209;64013;-63
2023/12/13 00:19:27;;;;;;;0.60;0.60;;;;;;;6.28;100.00;95475.09;29395;244;63005;-63
2023/12/13 00:19:58;;;;;;;0.50;0.50;;;;;;;6.28;100.00;95472.38;29395;245;63013;-55
2023/12/13 00:20:30;;;;;;;0.50;0.50;;;;;;;6.26;100.00;95474.59;29395;202;63000;-62
2023/12/13 00:21:01;;;;;;;0.60;0.60;;;;;;;6.25;100.00;95475.69;29395;236;63009;-56
2023/12/13 00:21:33;;;;;;;0.60;0.60;;;;;;;6.26;100.00;95459.22;29395;227;63004;-62
2023/12/13 00:22:04;;;;;;;0.55;0.55;;;;;;;6.28;100.00;95459.72;29395;206;63009;-64
2023/12/13 00:22:36;;;;;;;0.50;0.50;;;;;;;6.29;100.00;95463.22;29395;257;63004;-64
2023/12/13 00:23:07;;;;;;;0.50;0.50;;;;;;;6.26;100.00;95466.50;29395;207;63009;-63
2023/12/13 00:23:38;;;;;;;0.50;0.50;;;;;;;6.21;100.00;95474.72;29395;312;63004;-64
2023/12/13 00:24:12;;;;;;;0.55;0.55;;;;;;;6.20;100.00;95470.41;29394;219;64013;-64
2023/12/13 00:24:45;;;;;;;0.50;0.50;;;;;;;6.21;100.00;95472.00;29395;329;63004;-63
2023/12/13 00:25:16;;;;;;;0.50;0.50;;;;;;;6.20;100.00;95460.44;29395;223;63009;-64
2023/12/13 00:25:47;;;;;;;0.50;0.50;;;;;;;6.22;100.00;95470.91;29395;228;63005;-63
2023/12/13 00:26:19;;;;;;;0.50;0.50;;;;;;;6.22;100.00;95462.84;29395;197;63009;-62
2023/12/13 00:26:50;;;;;;;0.50;0.50;;;;;;;6.25;100.00;95462.22;29395;206;63005;-64
2023/12/13 00:27:23;;;;;;;0.50;0.50;;;;;;;6.26;100.00;95458.41;29395;212;63009;-63
2023/12/13 00:27:54;;;;;;;0.60;0.60;;;;;;;6.26;100.00;95458.41;29395;228;63005;-65
2023/12/13 00:28:26;;;;;;;0.50;0.50;;;;;;;6.26;100.00;95458.41;29395;265;63009;-62
2023/12/13 00:28:57;;;;;;;0.50;0.50;;;;;;;6.24;100.00;95461.41;29395;248;63004;-62
2023/12/13 00:29:28;;;;;;;0.50;0.50;;;;;;;6.24;100.00;95455.22;29394;218;64013;-63
2023/12/13 00:30:00;;;;;;;0.50;0.50;;;;;;;6.25;100.00;95456.81;29395;225;63004;-63
2023/12/13 00:30:34;;;;;;;0.50;0.50;;;;;;;6.30;100.00;95454.03;29395;203;63009;-62
2023/12/13 00:31:06;;;;;;;0.60;0.60;;;;;;;6.30;100.00;95449.44;29395;242;63004;-61
2023/12/13 00:31:37;;;;;;;0.60;0.60;;;;;;;6.24;100.00;95447.16;29395;218;63008;-62
2023/12/13 00:32:08;;;;;;;0.50;0.50;;;;;;;6.20;100.00;95448.88;29395;315;63014;-61
2023/12/13 00:32:39;;;;;;;0.50;0.50;;;;;;;6.19;100.00;95445.38;29395;237;63009;-61
2023/12/13 00:33:11;;;;;;;0.57;0.57;;;;;;;6.20;100.00;95446.19;29395;226;63005;-55
2023/12/13 00:33:43;;;;;;;0.60;0.60;;;;;;;6.22;100.00;95446.69;29395;303;63009;-62
2023/12/13 00:34:14;;;;;;;0.60;0.60;;;;;;;6.19;100.00;95441.88;29395;204;63005;-62
2023/12/13 00:34:47;;;;;;;0.50;0.50;;;;;;;6.18;100.00;95445.69;29394;247;64013;-61
2023/12/13 00:35:20;;;;;;;0.60;0.60;;;;;;;6.16;100.00;95442.47;29395;214;63010;-63
2023/12/13 00:35:52;;;;;;;0.50;0.50;;;;;;;6.15;100.00;95443.59;29395;208;63009;-60
2023/12/13 00:36:23;;;;;;;0.52;0.52;;;;;;;6.17;100.00;95433.31;29395;210;63005;-60
2023/12/13 00:36:54;;;;;;;0.50;0.50;;;;;;;6.21;100.00;95440.50;29395;235;63009;-62
2023/12/13 00:37:25;;;;;;;0.50;0.50;;;;;;;6.20;100.00;95438.09;29395;203;63004;-62
2023/12/13 00:37:56;;;;;;;0.60;0.60;;;;;;;6.18;100.00;95434.91;29395;246;63009;-63
2023/12/13 00:38:28;;;;;;;0.57;0.57;;;;;;;6.16;100.00;95435.19;29395;246;63004;-63
2023/12/13 00:39:00;;;;;;;0.50;0.50;;;;;;;6.15;100.00;95430.13;29395;204;63009;-63
2023/12/13 00:39:34;;;;;;;0.50;0.50;;;;;;;6.13;100.00;95437.69;29395;252;63004;-62
2023/12/13 00:40:08;;;;;;;0.60;0.60;;;;;;;6.09;100.00;95432.09;29394;204;64014;-64
2023/12/13 00:40:39;;;;;;;0.50;0.50;;;;;;;6.08;100.00;95435.91;29395;221;63005;-61
2023/12/13 00:41:11;;;;;;;0.50;0.50;;;;;;;6.09;100.00;95442.09;29395;226;63009;-63
2023/12/13 00:41:43;;;;;;;0.50;0.50;;;;;;;6.10;100.00;95432.91;29394;211;64005;-63
2023/12/13 00:42:14;;;;;;;0.50;0.50;;;;;;;6.06;100.00;95432.69;29395;226;63009;-62
2023/12/13 00:42:46;;;;;;;0.50;0.50;;;;;;;6.03;100.00;95434.09;29395;232;63007;-62
2023/12/13 00:43:17;;;;;;;0.60;0.60;;;;;;;5.98;100.00;95436.88;29395;225;63009;-63
2023/12/13 00:43:49;;;;;;;0.60;0.60;;;;;;;5.97;100.00;95424.53;29395;213;63005;-62
2023/12/13 00:44:20;;;;;;;0.50;0.50;;;;;;;5.98;100.00;95441.47;29395;208;63009;-63
2023/12/13 00:44:51;;;;;;;0.50;0.50;;;;;;;5.98;100.00;95439.56;29395;216;63010;-61
2023/12/13 00:45:22;;;;;;;0.50;0.50;;;;;;;5.99;100.00;95440.38;29394;226;64013;-62
2023/12/13 00:45:54;;;;;;;0.50;0.50;;;;;;;6.02;100.00;95442.47;29395;273;63004;-61
2023/12/13 00:46:29;;;;;;;0.50;0.50;;;;;;;6.04;100.00;95434.91;29395;351;63009;-63
2023/12/13 00:47:01;;;;;;;0.60;0.60;;;;;;;6.04;100.00;95446.47;29395;303;63012;-62
2023/12/13 00:47:33;;;;;;;0.50;0.50;;;;;;;6.05;100.00;95437.28;29395;220;63005;-63
2023/12/13 00:48:05;;;;;;;0.50;0.50;;;;;;;6.04;100.00;95438.38;29395;226;63005;-63
2023/12/13 00:48:37;;;;;;;0.50;0.50;;;;;;;6.03;100.00;95438.69;29395;225;63009;-62
2023/12/13 00:49:09;;;;;;;0.50;0.50;;;;;;;6.00;100.00;95439.28;29394;198;64009;-62
2023/12/13 00:49:40;;;;;;;0.50;0.50;;;;;;;5.98;100.00;95436.88;29395;229;63009;-63
2023/12/13 00:50:15;;;;;;;0.50;0.50;;;;;;;5.99;100.00;95443.06;29395;198;63005;-63
2023/12/13 00:50:47;;;;;;;0.50;0.50;;;;;;;5.98;100.00;95439.56;29395;236;63009;-63
2023/12/13 00:51:20;;;;;;;0.60;0.60;;;;;;;5.96;100.00;95444.47;29395;249;63004;-62
2023/12/13 00:51:52;;;;;;;0.50;0.50;;;;;;;5.94;100.00;95435.87;29395;302;63017;-56
2023/12/13 00:52:24;;;;;;;0.50;0.50;;;;;;;5.94;100.00;95438.56;29395;220;63004;-63
2023/12/13 00:52:56;;;;;;;0.60;0.60;;;;;;;5.93;100.00;95434.28;29395;250;63009;-63
2023/12/13 00:53:27;;;;;;;0.60;0.60;;;;;;;5.96;100.00;95443.66;29395;212;63004;-63
2023/12/13 00:53:59;;;;;;;0.60;0.60;;;;;;;5.97;100.00;95445.25;29395;211;63026;-63
2023/12/13 00:54:31;;;;;;;0.50;0.50;;;;;;;5.96;100.00;95444.47;29394;198;64008;-63
2023/12/13 00:55:04;;;;;;;0.60;0.60;;;;;;;5.93;100.00;95434.28;29394;265;64014;-62
2023/12/13 00:55:35;;;;;;;0.60;0.60;;;;;;;5.93;100.00;95447.75;29395;207;63005;-61
2023/12/13 00:56:08;;;;;;;0.50;0.50;;;;;;;5.95;100.00;95432.09;29394;221;64009;-63
2023/12/13 00:56:39;;;;;;;0.50;0.50;;;;;;;5.95;100.00;95442.06;29395;246;63005;-63
2023/12/13 00:57:12;;;;;;;0.50;0.50;;;;;;;5.93;100.00;95442.34;29395;215;63009;-63
2023/12/13 00:57:43;;;;;;;0.50;0.50;;;;;;;5.93;100.00;95436.97;29395;205;63005;-63
2023/12/13 00:58:14;;;;;;;0.60;0.60;;;;;;;5.93;100.00;95430.78;29395;197;63009;-61
2023/12/13 00:58:47;;;;;;;0.60;0.60;;;;;;;5.96;100.00;95433.69;29395;212;63012;-63
2023/12/13 00:59:19;;;;;;;0.60;0.60;;;;;;;5.96;100.00;95428.31;29395;299;63009;-64
2023/12/13 00:59:51;;;;;;;0.50;0.50;;;;;;;5.98;100.00;95442.25;29395;238;63017;-62
2023/12/13 01:00:22;;;;;;;0.60;0.60;;;;;;;5.97;100.00;95440.66;29394;222;64013;-64
2023/12/13 01:00:54;;;;;;;0.50;0.50;;;;;;;5.95;100.00;95447.44;29395;205;63004;-63
2023/12/13 01:01:25;;;;;;;0.60;0.60;;;;;;;5.95;100.00;95444.75;29395;222;63015;-64
2023/12/13 01:01:56;;;;;;;0.60;0.60;;;;;;;5.93;100.00;95452.31;29395;202;63005;-62
2023/12/13 01:02:29;;;;;;;0.50;0.50;;;;;;;5.91;100.00;95447.25;29395;213;63025;-63
2023/12/13 01:03:00;;;;;;;0.50;0.50;;;;;;;5.89;100.00;95454.81;29395;276;63005;-64
2023/12/13 01:03:32;;;;;;;0.52;0.52;;;;;;;5.86;100.00;95452.72;29395;216;63009;-64
2023/12/13 01:04:03;;;;;;;0.50;0.50;;;;;;;5.86;100.00;95455.41;29395;197;63008;-62
2023/12/13 01:04:38;;;;;;;0.50;0.50;;;;;;;5.85;100.00;95459.19;29395;236;63024;-63
2023/12/13 01:05:10;;;;;;;0.57;0.57;;;;;;;5.85;100.00;95456.50;29395;210;63012;-63
2023/12/13 01:05:41;;;;;;;0.60;0.60;;;;;;;5.84;100.00;95452.22;29394;200;64013;-64
2023/12/13 01:06:12;;;;;;;0.60;0.60;;;;;;;5.81;100.00;95452.81;29395;246;63004;-62
2023/12/13 01:06:43;;;;;;;0.50;0.50;;;;;;;5.79;100.00;95451.50;29395;220;63009;-62
2023/12/13 01:07:15;;;;;;;0.50;0.50;;;;;;;5.77;100.00;95457.19;29395;202;63004;-65
2023/12/13 01:07:46;;;;;;;0.60;0.60;;;;;;;5.76;100.00;95452.91;29395;369;63009;-62
2023/12/13 01:08:17;;;;;;;0.50;0.50;;;;;;;5.75;100.00;95456.69;29395;218;63004;-63
2023/12/13 01:08:49;;;;;;;0.50;0.50;;;;;;;5.80;100.00;95458.47;29395;203;63008;-64
2023/12/13 01:09:20;;;;;;;0.50;0.50;;;;;;;5.85;100.00;95453.00;29394;203;64005;-62
2023/12/13 01:09:51;;;;;;;0.60;0.60;;;;;;;5.86;100.00;95460.00;29395;243;63009;-65
2023/12/13 01:10:23;;;;;;;0.60;0.60;;;;;;;5.85;100.00;95453.00;29395;203;63005;-61
2023/12/13 01:10:54;;;;;;;0.50;0.50;;;;;;;5.82;100.00;95457.09;29394;200;64013;-62
2023/12/13 01:11:25;;;;;;;0.50;0.50;;;;;;;5.80;100.00;95456.59;29395;214;63005;-64
2023/12/13 01:11:56;;;;;;;0.60;0.60;;;;;;;5.81;100.00;95458.19;29395;244;63009;-64
2023/12/13 01:12:28;;;;;;;0.60;0.60;;;;;;;5.81;100.00;95457.41;29395;306;63008;-63
2023/12/13 01:13:00;;;;;;;0.60;0.60;;;;;;;5.78;100.00;95453.41;29396;199;63009;-63
2023/12/13 01:13:32;;;;;;;0.50;0.50;;;;;;;5.72;100.00;95455.38;29395;202;63011;-64
2023/12/13 01:14:04;;;;;;;0.60;0.60;;;;;;;5.71;100.00;95459.16;29395;203;63009;-64
2023/12/13 01:14:36;;;;;;;0.60;0.60;;;;;;;5.71;100.00;95453.78;29395;207;63007;-63
2023/12/13 01:15:10;;;;;;;0.60;0.60;;;;;;;5.77;100.00;95451.81;29395;236;63009;-63
2023/12/13 01:15:41;;;;;;;0.60;0.60;;;;;;;5.81;100.00;95450.13;29395;222;63004;-62
2023/12/13 01:16:13;;;;;;;0.50;0.50;;;;;;;5.81;100.00;95447.41;29394;238;64013;-63
2023/12/13 01:16:44;;;;;;;0.50;0.50;;;;;;;5.81;100.00;95447.41;29395;322;63004;-63
2023/12/13 01:17:16;;;;;;;0.50;0.50;;;;;;;5.81;100.00;95449.31;29395;221;63009;-63
2023/12/13 01:17:47;;;;;;;0.60;0.60;;;;;;;5.83;100.00;95456.00;29395;224;63005;-64
2023/12/13 01:18:18;;;;;;;0.50;0.50;;;;;;;5.81;100.00;95441.25;29395;214;63009;-55
2023/12/13 01:18:49;;;;;;;0.60;0.60;;;;;;;5.77;100.00;95446.41;29395;203;63005;-64
2023/12/13 01:19:21;;;;;;;0.60;0.60;;;;;;;5.75;100.00;95448.59;29395;227;63009;-63
2023/12/13 01:19:52;;;;;;;0.52;0.52;;;;;;;5.74;100.00;95449.69;29395;230;63005;-64
2023/12/13 01:20:24;;;;;;;0.50;0.50;;;;;;;5.74;100.00;95447.00;29395;218;63009;-67
2023/12/13 01:20:56;;;;;;;0.57;0.57;;;;;;;5.76;100.00;95450.22;29395;225;63005;-66
2023/12/13 01:21:28;;;;;;;0.60;0.60;;;;;;;5.74;100.00;95447.00;29394;212;64013;-65
2023/12/13 01:22:00;;;;;;;0.60;0.60;;;;;;;5.75;100.00;95448.59;29395;237;63014;-64
2023/12/13 01:22:32;;;;;;;0.60;0.60;;;;;;;5.75;100.00;95445.13;29395;225;63009;-65
2023/12/13 01:23:03;;;;;;;0.50;0.50;;;;;;;5.76;100.00;95449.41;29395;239;63004;-65
2023/12/13 01:23:34;;;;;;;0.60;0.60;;;;;;;5.76;100.00;95444.03;29395;215;63008;-65
2023/12/13 01:24:06;;;;;;;0.52;0.52;;;;;;;5.75;100.00;95443.22;29395;214;63004;-63
2023/12/13 01:24:38;;;;;;;0.50;0.50;;;;;;;5.70;100.00;95451.37;29395;206;63009;-64
2023/12/13 01:25:10;;;;;;;0.60;0.60;;;;;;;5.68;100.00;95448.19;29395;228;63001;-63
2023/12/13 01:25:41;;;;;;;0.60;0.60;;;;;;;5.67;100.00;95446.59;29395;230;63009;-64
2023/12/13 01:26:13;;;;;;;0.60;0.60;;;;;;;5.68;100.00;95442.81;29395;204;63005;-56
2023/12/13 01:26:45;;;;;;;0.60;0.60;;;;;;;5.67;100.00;95441.22;29394;313;64013;-66
2023/12/13 01:27:16;;;;;;;0.60;0.60;;;;;;;5.69;100.00;95455.16;29395;238;63005;-65
2023/12/13 01:27:50;;;;;;;0.60;0.60;;;;;;;5.68;100.00;95449.00;29395;202;63009;-65
2023/12/13 01:28:21;;;;;;;0.50;0.50;;;;;;;5.70;100.00;95446.00;29395;213;63005;-65
2023/12/13 01:28:52;;;;;;;0.50;0.50;;;;;;;5.68;100.00;95442.81;29395;216;63009;-65
2023/12/13 01:29:24;;;;;;;0.60;0.60;;;;;;;5.67;100.00;95446.59;29395;211;63010;-64
2023/12/13 01:31:10;;;;;;;0.60;0.60;;;;;;;5.72;100.00;95444.63;88174;245;64005;-64
2023/12/13 01:31:41;;;;;;;0.60;0.60;;;;;;;5.72;100.00;95433.06;29394;231;64009;-64
2023/12/13 01:32:12;;;;;;;0.60;0.60;;;;;;;5.70;100.00;95443.31;29394;259;64009;-67
2023/12/13 01:32:43;;;;;;;0.50;0.50;;;;;;;5.69;100.00;95447.09;29394;303;64013;-64
2023/12/13 01:33:15;;;;;;;0.60;0.60;;;;;;;5.68;100.00;95442.81;29395;248;63004;-64
2023/12/13 01:33:46;;;;;;;0.60;0.60;;;;;;;5.68;100.00;95434.72;29395;218;63009;-66
2023/12/13 01:34:17;;;;;;;0.50;0.50;;;;;;;5.69;100.00;95439.03;29395;231;63005;-66
2023/12/13 01:34:48;;;;;;;0.50;0.50;;;;;;;5.66;100.00;95445.00;29395;226;63009;-65
2023/12/13 01:35:19;;;;;;;0.50;0.50;;;;;;;5.66;100.00;95439.62;29395;207;63005;-65
2023/12/13 01:35:50;;;;;;;0.50;0.50;;;;;;;5.66;100.00;95439.62;29395;313;63009;-65
2023/12/13 01:36:22;;;;;;;0.60;0.60;;;;;;;5.65;100.00;95438.00;29395;219;63005;-65
2023/12/13 01:36:53;;;;;;;0.57;0.57;;;;;;;5.65;100.00;95438.00;29395;212;63009;-65
2023/12/13 01:37:24;;;;;;;0.60;0.60;;;;;;;5.62;100.00;95434.03;29395;281;63005;-65
2023/12/13 01:37:55;;;;;;;0.60;0.60;;;;;;;5.62;100.00;95434.03;29394;287;64013;-66
2023/12/13 01:38:26;;;;;;;0.60;0.60;;;;;;;5.59;100.00;95431.12;29394;279;64009;-66
2023/12/13 01:38:57;;;;;;;0.50;0.50;;;;;;;5.60;100.00;95436.22;29395;336;63009;-65
2023/12/13 01:39:29;;;;;;;0.50;0.50;;;;;;;5.59;100.00;95437.31;29395;347;63004;-65
2023/12/13 01:40:00;;;;;;;0.52;0.52;;;;;;;5.61;100.00;95434.31;29394;215;64013;-68
2023/12/13 01:40:31;;;;;;;0.60;0.60;;;;;;;5.61;100.00;95447.78;29394;222;64004;-65
2023/12/13 01:41:03;;;;;;;0.60;0.60;;;;;;;5.61;100.00;95445.09;29395;196;63008;-66
2023/12/13 01:41:35;;;;;;;0.50;0.50;;;;;;;5.62;100.00;95441.31;29395;226;63005;-57
2023/12/13 01:42:07;;;;;;;0.50;0.50;;;;;;;5.61;100.00;95443.19;29395;241;63009;-65
2023/12/13 01:42:38;;;;;;;0.50;0.50;;;;;;;5.60;100.00;95446.19;29395;227;63005;-66
2023/12/13 01:43:21;;;;;;;0.50;0.50;;;;;;;5.59;100.00;95444.59;29394;218;64013;-67
2023/12/13 01:43:52;;;;;;;0.60;0.60;;;;;;;5.57;100.00;95441.38;29395;202;63005;-67
2023/12/13 01:44:24;;;;;;;0.50;0.50;;;;;;;5.60;100.00;95440.78;29395;220;63009;-67
2023/12/13 01:44:55;;;;;;;0.50;0.50;;;;;;;5.63;100.00;95442.91;29395;208;63005;-64
2023/12/13 01:45:27;;;;;;;0.60;0.60;;;;;;;5.67;100.00;95441.22;29395;212;63012;-65
2023/12/13 01:45:59;;;;;;;0.50;0.50;;;;;;;5.68;100.00;95437.44;29395;270;63004;-68
2023/12/13 01:46:31;;;;;;;0.50;0.50;;;;;;;5.69;100.00;95447.09;29395;285;63013;-67
2023/12/13 01:47:03;;;;;;;0.50;0.50;;;;;;;5.67;100.00;95441.22;29394;325;64009;-65
2023/12/13 01:47:35;;;;;;;0.52;0.52;;;;;;;5.67;100.00;95446.59;29395;200;63009;-67
2023/12/13 01:48:06;;;;;;;0.55;0.55;;;;;;;5.68;100.00;95443.59;29395;226;63004;-56
2023/12/13 01:48:39;;;;;;;0.50;0.50;;;;;;;5.69;100.00;95439.03;29395;209;63008;-66
2023/12/13 01:49:12;;;;;;;0.60;0.60;;;;;;;5.76;100.00;95444.81;29395;206;63005;-65
2023/12/13 01:49:45;;;;;;;0.50;0.50;;;;;;;5.75;100.00;95448.59;29395;215;63009;-68
2023/12/13 01:50:17;;;;;;;0.50;0.50;;;;;;;5.74;100.00;95444.31;29394;235;64009;-66
2023/12/13 01:50:50;;;;;;;0.50;0.50;;;;;;;5.75;100.00;95443.22;29395;254;63009;-66
2023/12/13 01:51:22;;;;;;;0.60;0.60;;;;;;;5.72;100.00;95444.63;29395;216;63005;-65
2023/12/13 01:51:53;;;;;;;0.50;0.50;;;;;;;5.70;100.00;95448.69;29395;244;63009;-66
2023/12/13 01:52:25;;;;;;;0.60;0.60;;;;;;;5.67;100.00;95441.22;29395;231;63012;-66
2023/12/13 01:52:56;;;;;;;0.60;0.60;;;;;;;5.66;100.00;95443.09;29395;251;63026;-66
2023/12/13 01:53:27;;;;;;;0.60;0.60;;;;;;;5.68;100.00;95440.91;29395;257;63004;-66
2023/12/13 01:53:59;;;;;;;0.50;0.50;;;;;;;5.68;100.00;95446.28;29395;204;63009;-57
2023/12/13 01:54:31;;;;;;;0.52;0.52;;;;;;;5.67;100.00;95444.69;29395;208;63004;-69
2023/12/13 01:55:04;;;;;;;0.50;0.50;;;;;;;5.67;100.00;95449.28;29395;323;63009;-69
2023/12/13 01:55:36;;;;;;;0.50;0.50;;;;;;;5.66;100.00;95439.62;29394;249;64008;-66
2023/12/13 01:56:09;;;;;;;0.60;0.60;;;;;;;5.68;100.00;95442.81;29395;208;63008;-67
2023/12/13 01:56:43;;;;;;;0.55;0.55;;;;;;;5.68;100.00;95445.50;29395;263;63019;-66
2023/12/13 01:57:15;;;;;;;0.60;0.60;;;;;;;5.67;100.00;95435.84;29395;223;63009;-68
2023/12/13 01:57:47;;;;;;;0.60;0.60;;;;;;;5.66;100.00;95442.31;29395;209;63005;-69
2023/12/13 01:58:19;;;;;;;0.50;0.50;;;;;;;5.68;100.00;95446.28;29395;251;63009;-67
2023/12/13 01:58:50;;;;;;;0.50;0.50;;;;;;;5.75;100.00;95447.81;29395;204;63010;-68
2023/12/13 01:59:23;;;;;;;0.50;0.50;;;;;;;5.75;100.00;95447.81;29395;261;63009;-57
2023/12/13 01:59:54;;;;;;;0.50;0.50;;;;;;;5.72;100.00;95443.81;29395;240;63015;-68
2023/12/13 02:00:26;;;;;;;0.50;0.50;;;;;;;5.74;100.00;95444.31;29394;203;64009;-68
2023/12/13 02:00:58;;;;;;;0.60;0.60;;;;;;;5.70;100.00;95443.31;29394;200;64009;-69
2023/12/13 02:01:30;;;;;;;0.60;0.60;;;;;;;5.67;100.00;95444.69;29395;211;63009;-68
2023/12/13 02:02:03;;;;;;;0.60;0.60;;;;;;;5.66;100.00;95445.00;29395;219;63004;-68
2023/12/13 02:02:34;;;;;;;0.50;0.50;;;;;;;5.66;100.00;95439.62;29395;255;63021;-57
2023/12/13 02:03:12;;;;;;;0.60;0.60;;;;;;;5.64;100.00;95447.19;29395;198;63004;-68
2023/12/13 02:03:44;;;;;;;0.50;0.50;;;;;;;5.61;100.00;95442.37;29395;219;63025;-68
2023/12/13 02:04:17;;;;;;;0.55;0.55;;;;;;;5.60;100.00;95440.78;29395;219;63011;-70
2023/12/13 02:04:50;;;;;;;0.50;0.50;;;;;;;5.62;100.00;95439.41;29395;220;63009;-68
2023/12/13 02:05:26;;;;;;;0.60;0.60;;;;;;;5.69;100.00;95436.34;29395;296;63005;-67
2023/12/13 02:05:57;;;;;;;0.52;0.52;;;;;;;5.75;100.00;95431.66;29395;242;63009;-68
2023/12/13 02:06:29;;;;;;;0.60;0.60;;;;;;;5.75;100.00;95432.47;29394;381;64009;-69
2023/12/13 02:07:01;;;;;;;0.50;0.50;;;;;;;5.75;100.00;95431.66;29395;263;63009;-68
2023/12/13 02:07:34;;;;;;;0.50;0.50;;;;;;;5.71;100.00;95434.94;29395;199;63005;-67
2023/12/13 02:08:06;;;;;;;0.60;0.60;;;;;;;5.65;100.00;95433.44;29395;218;63009;-70
2023/12/13 02:08:38;;;;;;;0.50;0.50;;;;;;;5.64;100.00;95437.22;29395;209;63004;-69
2023/12/13 02:09:09;;;;;;;0.60;0.60;;;;;;;5.67;100.00;95425.06;29395;204;63009;-58
2023/12/13 02:09:41;;;;;;;0.50;0.50;;;;;;;5.67;100.00;95427.75;29395;198;63004;-69
2023/12/13 02:10:12;;;;;;;0.50;0.50;;;;;;;5.71;100.00;95431.44;29395;211;63009;-75
2023/12/13 02:10:45;;;;;;;0.50;0.50;;;;;;;5.71;100.00;95426.88;29395;226;63004;-73
2023/12/13 02:11:16;;;;;;;0.60;0.60;;;;;;;5.71;100.00;95431.44;29395;312;63008;-70
2023/12/13 02:11:49;;;;;;;0.60;0.60;;;;;;;5.69;100.00;95428.25;29394;197;64009;-72
2023/12/13 02:12:21;;;;;;;0.50;0.50;;;;;;;5.67;100.00;95425.88;29395;208;63009;-69
2023/12/13 02:12:53;;;;;;;0.50;0.50;;;;;;;5.67;100.00;95436.63;29395;324;63005;-68
2023/12/13 02:13:24;;;;;;;0.50;0.50;;;;;;;5.69;100.00;95428.25;29395;210;63009;-69
2023/12/13 02:13:57;;;;;;;0.60;0.60;;;;;;;5.65;100.00;95424.56;29395;207;63005;-71
2023/12/13 02:14:28;;;;;;;0.60;0.60;;;;;;;5.62;100.00;95417.09;29395;253;63009;-69
2023/12/13 02:15:00;;;;;;;0.50;0.50;;;;;;;5.61;100.00;95424.34;29395;206;63005;-69
2023/12/13 02:15:35;;;;;;;0.60;0.60;;;;;;;5.58;100.00;95421.47;29395;301;63009;-58
2023/12/13 02:16:07;;;;;;;0.50;0.50;;;;;;;5.57;100.00;95423.34;29395;252;63004;-70
2023/12/13 02:16:39;;;;;;;0.50;0.50;;;;;;;5.59;100.00;95423.06;29395;209;63019;-68
2023/12/13 02:17:13;;;;;;;0.60;0.60;;;;;;;5.58;100.00;95421.47;29394;217;64009;-60
2023/12/13 02:17:54;;;;;;;0.50;0.50;;;;;;;5.61;100.00;95418.19;29395;206;63009;-58
2023/12/13 02:18:27;;;;;;;0.60;0.60;;;;;;;5.62;100.00;95417.88;29395;197;63004;-70
2023/12/13 02:18:59;;;;;;;0.60;0.60;;;;;;;5.63;100.00;95416.00;29395;321;63008;-69
2023/12/13 02:19:30;;;;;;;0.50;0.50;;;;;;;5.62;100.00;95417.09;29395;228;63005;-69
2023/12/13 02:20:02;;;;;;;0.60;0.60;;;;;;;5.58;100.00;95422.25;29395;214;63024;-74
2023/12/13 02:20:33;;;;;;;0.60;0.60;;;;;;;5.58;100.00;95418.75;29395;215;63005;-69
2023/12/13 02:21:06;;;;;;;0.50;0.50;;;;;;;5.57;100.00;95419.84;29395;214;63009;-69
2023/12/13 02:21:38;;;;;;;0.60;0.60;;;;;;;5.58;100.00;95419.56;29395;254;63005;-68
2023/12/13 02:22:09;;;;;;;0.60;0.60;;;;;;;5.58;100.00;95421.47;29395;221;63009;-74
2023/12/13 02:22:40;;;;;;;0.60;0.60;;;;;;;5.59;100.00;95412.28;29394;215;64009;-68
2023/12/13 02:23:12;;;;;;;0.60;0.60;;;;;;;5.62;100.00;95417.09;29395;227;63009;-68
2023/12/13 02:23:43;;;;;;;0.50;0.50;;;;;;;5.60;100.00;95413.88;29395;338;63004;-64
2023/12/13 02:24:17;;;;;;;0.50;0.50;;;;;;;5.66;100.00;95412.72;29395;202;63009;-69
2023/12/13 02:24:52;;;;;;;0.60;0.60;;;;;;;5.68;100.00;95408.62;29395;206;63004;-68
2023/12/13 02:25:40;;;;;;;0.50;0.50;;;;;;;5.69;100.00;95412.13;29395;226;63008;-70
2023/12/13 02:26:13;;;;;;;0.60;0.60;;;;;;;5.65;100.00;95411.09;29395;202;63005;-70
2023/12/13 02:26:45;;;;;;;0.50;0.50;;;;;;;5.64;100.00;95409.50;29395;282;63009;-69
2023/12/13 02:27:21;;;;;;;0.60;0.60;;;;;;;5.64;100.00;95406.81;29395;305;63005;-70
2023/12/13 02:27:52;;;;;;;0.50;0.50;;;;;;;5.62;100.00;95411.69;29394;312;64009;-68
2023/12/13 02:28:25;;;;;;;0.50;0.50;;;;;;;5.65;100.00;95401.16;29395;209;63005;-69
2023/12/13 02:28:58;;;;;;;0.60;0.60;;;;;;;5.63;100.00;95407.91;29395;223;63009;-68
2023/12/13 02:29:30;;;;;;;0.60;0.60;;;;;;;5.64;100.00;95417.59;29395;234;63005;-67
2023/12/13 02:30:02;;;;;;;0.50;0.50;;;;;;;5.65;100.00;95411.09;29395;212;63009;-70
2023/12/13 02:30:36;;;;;;;0.50;0.50;;;;;;;5.63;100.00;95410.59;29395;269;63004;-71
2023/12/13 02:31:09;;;;;;;0.60;0.60;;;;;;;5.64;100.00;95409.50;29395;202;63009;-59
2023/12/13 02:31:43;;;;;;;0.60;0.60;;;;;;;5.64;100.00;95406.81;29395;203;63004;-70
2023/12/13 02:32:15;;;;;;;0.60;0.60;;;;;;;5.63;100.00;95407.91;29395;205;63009;-72
2023/12/13 02:32:46;;;;;;;0.60;0.60;;;;;;;5.59;100.00;95406.91;29395;229;63009;-66
2023/12/13 02:33:17;;;;;;;0.60;0.60;;;;;;;5.56;100.00;95400.22;29394;241;64014;-67
2023/12/13 02:33:48;;;;;;;0.60;0.60;;;;;;;5.55;100.00;95405.91;29395;203;63005;-70